createdAt,value
2022-08-22T00:00:06.432Z,104.30
2022-08-22T00:00:16.442Z,113.60
2022-08-22T00:00:26.493Z,112.20
2022-08-22T00:00:36.565Z,113.30
2022-08-22T00:00:46.563Z,104.70
2022-08-22T00:00:56.606Z,103.80
2022-08-22T00:01:06.865Z,100.90
2022-08-22T00:01:16.925Z,101.70
2022-08-22T00:01:26.955Z,104.00
2022-08-22T00:01:37.006Z,109.20
2022-08-22T00:01:47.055Z,114.20
2022-08-22T00:01:57.142Z,115.60
2022-08-22T00:02:09.073Z,111.80
2022-08-22T00:02:17.368Z,102.70
2022-08-22T00:02:27.452Z,98.20
2022-08-22T00:02:37.560Z,93.50
2022-08-22T00:02:41.976Z,52.20
2022-08-22T00:02:45.174Z,16.80
2022-08-22T00:02:46.449Z,22.60
2022-08-22T00:02:46.944Z,30.30
2022-08-22T00:02:47.156Z,34.40
2022-08-22T00:02:48.677Z,19.20
2022-08-22T00:02:49.863Z,34.00
2022-08-22T00:02:53.532Z,17.50
2022-08-22T00:02:53.999Z,18.70
2022-08-22T00:02:54.059Z,21.20
2022-08-22T00:02:55.810Z,97.20
2022-08-22T00:02:56.262Z,47.60
2022-08-22T00:02:56.360Z,3.60
2022-08-22T00:02:57.068Z,16.50
2022-08-22T00:02:57.074Z,34.00
2022-08-22T00:02:57.677Z,96.10
2022-08-22T00:03:00.778Z,16.90
2022-08-22T00:03:03.716Z,3.00
2022-08-22T00:03:03.718Z,22.40
2022-08-22T00:03:04.652Z,3.90
2022-08-22T00:03:04.820Z,16.70
2022-08-22T00:03:08.440Z,32.10
2022-08-22T00:03:08.938Z,16.60
2022-08-22T00:03:09.503Z,31.00
2022-08-22T00:03:10.012Z,107.00
2022-08-22T00:03:10.808Z,30.70
2022-08-22T00:03:12.380Z,34.10
2022-08-22T00:03:12.558Z,4.20
2022-08-22T00:03:15.114Z,96.40
2022-08-22T00:03:16.002Z,32.50
2022-08-22T00:03:17.753Z,91.50
2022-08-22T00:03:24.757Z,96.50
2022-08-22T00:03:30.516Z,98.80
2022-08-22T00:03:40.557Z,93.10
2022-08-22T00:03:50.608Z,87.60
2022-08-22T00:04:00.665Z,93.50
2022-08-22T00:04:10.724Z,97.20
2022-08-22T00:04:20.797Z,98.60
2022-08-22T00:04:33.343Z,93.50
2022-08-22T00:04:40.845Z,87.50
2022-08-22T00:04:50.894Z,96.60
2022-08-22T00:05:01.058Z,101.20
2022-08-22T00:05:11.136Z,102.10
2022-08-22T00:05:21.175Z,92.30
2022-08-22T00:05:31.234Z,92.60
2022-08-22T00:05:41.268Z,84.80
2022-08-22T00:05:51.382Z,90.50
2022-08-22T00:06:01.415Z,90.30
2022-08-22T00:06:11.484Z,104.20
2022-08-22T00:06:21.496Z,105.00
2022-08-22T00:06:31.557Z,103.70
2022-08-22T00:06:41.617Z,99.00
2022-08-22T00:06:51.666Z,94.00
2022-08-22T00:07:01.714Z,101.70
2022-08-22T00:07:11.755Z,98.60
2022-08-22T00:07:21.805Z,102.70
2022-08-22T00:07:31.855Z,95.50
2022-08-22T00:07:41.907Z,93.80
2022-08-22T00:07:52.010Z,94.90
2022-08-22T00:08:02.049Z,84.40
2022-08-22T00:08:12.088Z,91.30
2022-08-22T00:08:22.115Z,89.10
2022-08-22T00:08:32.173Z,100.20
2022-08-22T00:08:42.224Z,95.80
2022-08-22T00:08:52.303Z,96.10
2022-08-22T00:09:02.353Z,96.10
2022-08-22T00:09:12.423Z,96.50
2022-08-22T00:09:22.475Z,96.60
2022-08-22T00:09:32.523Z,92.40
2022-08-22T00:09:42.563Z,95.50
2022-08-22T00:09:52.618Z,98.50
2022-08-22T00:10:02.675Z,104.40
2022-08-22T00:10:12.732Z,99.30
2022-08-22T00:10:25.529Z,91.30
2022-08-22T00:10:33.704Z,89.90
2022-08-22T00:10:43.774Z,97.10
2022-08-22T00:10:53.815Z,102.00
2022-08-22T00:11:03.867Z,108.10
2022-08-22T00:11:13.916Z,96.50
2022-08-22T00:11:23.956Z,92.30
2022-08-22T00:11:34.893Z,82.10
2022-08-22T00:11:44.005Z,80.10
2022-08-22T00:11:54.042Z,82.20
2022-08-22T00:12:04.095Z,81.20
2022-08-22T00:12:14.131Z,87.90
2022-08-22T00:12:24.166Z,85.50
2022-08-22T00:12:34.216Z,85.10
2022-08-22T00:12:44.256Z,80.20
2022-08-22T00:12:54.304Z,82.50
2022-08-22T00:13:04.343Z,90.20
2022-08-22T00:13:14.396Z,94.30
2022-08-22T00:13:24.445Z,92.20
2022-08-22T00:13:34.496Z,82.90
2022-08-22T00:13:44.535Z,82.60
2022-08-22T00:14:01.220Z,90.90
2022-08-22T00:14:05.546Z,94.30
2022-08-22T00:14:15.606Z,95.90
2022-08-22T00:14:25.654Z,89.50
2022-08-22T00:14:35.695Z,94.60
2022-08-22T00:14:45.745Z,93.90
2022-08-22T00:14:55.804Z,96.30
2022-08-22T00:15:05.844Z,85.90
2022-08-22T00:15:42.202Z,78.10
2022-08-22T00:15:43.394Z,84.30
2022-08-22T00:15:43.533Z,96.80
2022-08-22T00:15:48.685Z,100.50
2022-08-22T00:15:58.717Z,103.00
2022-08-22T00:16:08.725Z,98.70
2022-08-22T00:16:18.745Z,100.00
2022-08-22T00:16:28.770Z,91.20
2022-08-22T00:16:38.777Z,95.50
2022-08-22T00:16:48.785Z,88.70
2022-08-22T00:16:58.915Z,88.40
2022-08-22T00:17:08.945Z,88.70
2022-08-22T00:17:18.955Z,94.80
2022-08-22T00:17:28.995Z,98.20
2022-08-22T00:17:39.047Z,95.20
2022-08-22T00:17:49.065Z,97.50
2022-08-22T00:17:59.231Z,92.00
2022-08-22T00:18:10.025Z,95.10
2022-08-22T00:18:20.023Z,92.10
2022-08-22T00:18:30.045Z,98.20
2022-08-22T00:18:40.045Z,98.30
2022-08-22T00:18:50.064Z,86.10
2022-08-22T00:19:00.093Z,83.00
2022-08-22T00:19:10.105Z,82.60
2022-08-22T00:19:20.123Z,97.90
2022-08-22T00:19:30.134Z,96.00
2022-08-22T00:19:40.215Z,97.90
2022-08-22T00:19:50.225Z,86.00
2022-08-22T00:20:00.266Z,92.10
2022-08-22T00:20:10.325Z,88.40
2022-08-22T00:20:20.355Z,93.90
2022-08-22T00:20:31.316Z,91.00
2022-08-22T00:20:41.453Z,86.30
2022-08-22T00:20:51.505Z,81.40
2022-08-22T00:21:01.546Z,84.90
2022-08-22T00:21:11.604Z,85.40
2022-08-22T00:21:21.655Z,84.10
2022-08-22T00:21:31.706Z,74.90
2022-08-22T00:21:41.763Z,75.80
2022-08-22T00:21:51.806Z,78.00
2022-08-22T00:22:01.863Z,77.10
2022-08-22T00:22:11.944Z,78.10
2022-08-22T00:22:21.994Z,69.40
2022-08-22T00:22:32.045Z,73.00
2022-08-22T00:22:42.097Z,73.40
2022-08-22T00:22:52.135Z,82.20
2022-08-22T00:23:02.196Z,87.40
2022-08-22T00:23:12.236Z,91.50
2022-08-22T00:23:22.275Z,95.80
2022-08-22T00:23:32.325Z,93.70
2022-08-22T00:23:42.374Z,95.70
2022-08-22T00:23:52.426Z,96.80
2022-08-22T00:24:02.486Z,98.30
2022-08-22T00:24:12.618Z,94.00
2022-08-22T00:24:22.686Z,90.80
2022-08-22T00:24:32.734Z,88.30
2022-08-22T00:24:42.785Z,94.50
2022-08-22T00:24:52.835Z,90.20
2022-08-22T00:25:02.896Z,92.30
2022-08-22T00:25:15.025Z,79.50
2022-08-22T00:25:25.692Z,81.90
2022-08-22T00:25:33.876Z,79.80
2022-08-22T00:25:43.957Z,88.20
2022-08-22T00:25:54.008Z,80.50
2022-08-22T00:26:04.052Z,83.40
2022-08-22T00:26:14.095Z,82.30
2022-08-22T00:26:24.164Z,92.80
2022-08-22T00:26:34.216Z,94.80
2022-08-22T00:26:45.583Z,100.40
2022-08-22T00:26:54.266Z,97.30
2022-08-22T00:27:04.339Z,98.00
2022-08-22T00:27:14.385Z,94.20
2022-08-22T00:27:24.417Z,91.30
2022-08-22T00:27:34.466Z,94.70
2022-08-22T00:27:45.050Z,94.10
2022-08-22T00:27:54.679Z,95.10
2022-08-22T00:28:04.580Z,88.60
2022-08-22T00:28:14.625Z,84.10
2022-08-22T00:28:24.666Z,82.00
2022-08-22T00:28:34.725Z,82.70
2022-08-22T00:28:44.765Z,86.60
2022-08-22T00:28:54.815Z,84.30
2022-08-22T00:29:04.885Z,77.90
2022-08-22T00:29:14.986Z,74.00
2022-08-22T00:29:25.225Z,82.40
2022-08-22T00:29:35.277Z,86.20
2022-08-22T00:29:45.326Z,92.30
2022-08-22T00:29:55.385Z,89.20
2022-08-22T00:30:05.431Z,93.20
2022-08-22T00:30:15.723Z,89.20
2022-08-22T00:30:25.783Z,86.20
2022-08-22T00:30:35.846Z,83.50
2022-08-22T00:30:45.925Z,84.00
2022-08-22T00:30:55.986Z,84.50
2022-08-22T00:31:06.036Z,80.50
2022-08-22T00:31:16.098Z,82.30
2022-08-22T00:31:26.143Z,82.50
2022-08-22T00:31:36.197Z,88.10
2022-08-22T00:31:46.245Z,83.20
2022-08-22T00:31:56.293Z,86.00
2022-08-22T00:32:06.335Z,82.10
2022-08-22T00:32:16.395Z,85.50
2022-08-22T00:32:26.450Z,87.40
2022-08-22T00:32:36.497Z,87.50
2022-08-22T00:32:46.666Z,83.40
2022-08-22T00:32:56.549Z,74.30
2022-08-22T00:33:06.595Z,74.30
2022-08-22T00:33:16.646Z,77.30
2022-08-22T00:33:26.695Z,81.60
2022-08-22T00:33:36.744Z,79.80
2022-08-22T00:33:46.804Z,80.00
2022-08-22T00:33:56.863Z,83.90
2022-08-22T00:34:06.903Z,85.70
2022-08-22T00:34:16.989Z,86.80
2022-08-22T00:34:27.036Z,86.70
2022-08-22T00:34:37.085Z,85.30
2022-08-22T00:34:47.135Z,85.50
2022-08-22T00:34:57.184Z,83.60
2022-08-22T00:35:07.228Z,85.30
2022-08-22T00:35:17.327Z,90.20
2022-08-22T00:35:27.365Z,94.30
2022-08-22T00:35:39.606Z,95.80
2022-08-22T00:35:48.365Z,89.00
2022-08-22T00:35:58.428Z,89.80
2022-08-22T00:36:08.475Z,86.60
2022-08-22T00:36:18.524Z,90.60
2022-08-22T00:36:28.582Z,96.50
2022-08-22T00:36:38.645Z,98.50
2022-08-22T00:36:48.695Z,93.90
2022-08-22T00:36:58.746Z,83.00
2022-08-22T00:37:08.843Z,83.30
2022-08-22T00:37:18.904Z,82.00
2022-08-22T00:37:28.997Z,83.90
2022-08-22T00:37:39.043Z,81.50
2022-08-22T00:37:49.085Z,85.30
2022-08-22T00:37:59.281Z,79.50
2022-08-22T00:38:09.215Z,78.70
2022-08-22T00:38:19.285Z,73.70
2022-08-22T00:38:29.324Z,81.50
2022-08-22T00:38:39.395Z,83.00
2022-08-22T00:38:49.436Z,83.80
2022-08-22T00:38:59.475Z,79.50
2022-08-22T00:39:09.517Z,77.10
2022-08-22T00:39:19.567Z,76.10
2022-08-22T00:39:29.606Z,75.70
2022-08-22T00:39:39.694Z,80.00
2022-08-22T00:39:49.781Z,78.00
2022-08-22T00:39:59.890Z,89.30
2022-08-22T00:40:10.008Z,87.20
2022-08-22T00:40:20.150Z,88.40
2022-08-22T00:40:30.036Z,76.10
2022-08-22T00:40:40.116Z,75.80
2022-08-22T00:40:50.105Z,75.10
2022-08-22T00:41:00.185Z,79.70
2022-08-22T00:41:10.227Z,77.20
2022-08-22T00:41:20.286Z,81.00
2022-08-22T00:41:30.326Z,81.00
2022-08-22T00:41:40.376Z,82.00
2022-08-22T00:41:50.425Z,81.00
2022-08-22T00:42:00.467Z,81.70
2022-08-22T00:42:10.515Z,77.70
2022-08-22T00:42:31.680Z,73.00
2022-08-22T00:42:32.336Z,70.50
2022-08-22T00:42:41.726Z,77.90
2022-08-22T00:42:51.764Z,82.60
2022-08-22T00:43:01.824Z,84.40
2022-08-22T00:43:11.875Z,77.60
2022-08-22T00:43:21.965Z,81.10
2022-08-22T00:43:32.015Z,79.70
2022-08-22T00:43:42.073Z,87.00
2022-08-22T00:43:52.122Z,81.60
2022-08-22T00:44:02.175Z,76.30
2022-08-22T00:44:12.248Z,71.40
2022-08-22T00:44:22.396Z,71.30
2022-08-22T00:44:32.445Z,75.30
2022-08-22T00:44:42.486Z,76.20
2022-08-22T00:44:52.535Z,81.70
2022-08-22T00:45:02.619Z,83.20
2022-08-22T00:45:12.655Z,85.50
2022-08-22T00:45:22.726Z,81.60
2022-08-22T00:45:32.777Z,81.80
2022-08-22T00:45:42.884Z,83.10
2022-08-22T00:45:52.935Z,80.40
2022-08-22T00:46:02.976Z,81.10
2022-08-22T00:46:13.026Z,78.60
2022-08-22T00:46:23.074Z,81.70
2022-08-22T00:46:33.114Z,78.10
2022-08-22T00:46:43.145Z,83.60
2022-08-22T00:46:53.195Z,87.60
2022-08-22T00:47:03.246Z,92.50
2022-08-22T00:47:13.294Z,90.60
2022-08-22T00:47:23.346Z,85.60
2022-08-22T00:47:33.395Z,82.50
2022-08-22T00:47:43.443Z,82.20
2022-08-22T00:47:53.496Z,87.50
2022-08-22T00:48:03.566Z,92.50
2022-08-22T00:48:14.685Z,90.60
2022-08-22T00:48:23.586Z,92.30
2022-08-22T00:48:33.646Z,89.00
2022-08-22T00:48:43.705Z,89.70
2022-08-22T00:48:53.744Z,86.60
2022-08-22T00:49:03.789Z,81.60
2022-08-22T00:49:13.826Z,87.20
2022-08-22T00:49:24.353Z,86.30
2022-08-22T00:49:34.836Z,86.00
2022-08-22T00:49:44.895Z,81.20
2022-08-22T00:49:54.935Z,84.60
2022-08-22T00:50:05.025Z,87.50
2022-08-22T00:50:15.105Z,87.80
2022-08-22T00:50:25.183Z,86.50
2022-08-22T00:50:35.245Z,85.00
2022-08-22T00:50:45.294Z,81.30
2022-08-22T00:50:55.344Z,84.20
2022-08-22T00:51:05.394Z,85.40
2022-08-22T00:51:15.435Z,86.10
2022-08-22T00:51:25.475Z,78.40
2022-08-22T00:51:35.534Z,75.60
2022-08-22T00:51:45.583Z,73.00
2022-08-22T00:51:55.645Z,84.20
2022-08-22T00:52:05.697Z,85.00
2022-08-22T00:52:15.743Z,89.80
2022-08-22T00:52:25.787Z,82.40
2022-08-22T00:52:35.849Z,80.80
2022-08-22T00:52:45.906Z,82.30
2022-08-22T00:52:56.206Z,83.90
2022-08-22T00:53:05.985Z,81.30
2022-08-22T00:53:16.034Z,75.40
2022-08-22T00:53:26.083Z,75.50
2022-08-22T00:53:36.127Z,83.10
2022-08-22T00:53:46.224Z,84.60
2022-08-22T00:53:56.266Z,86.00
2022-08-22T00:54:06.775Z,83.70
2022-08-22T00:54:17.742Z,83.70
2022-08-22T00:54:26.696Z,83.40
2022-08-22T00:54:36.736Z,84.60
2022-08-22T00:54:46.784Z,84.50
2022-08-22T00:54:56.835Z,80.90
2022-08-22T00:55:06.895Z,74.50
2022-08-22T00:55:16.936Z,76.70
2022-08-22T00:55:28.032Z,79.90
2022-08-22T00:55:37.945Z,82.80
2022-08-22T00:55:48.066Z,76.40
2022-08-22T00:55:58.115Z,83.70
2022-08-22T00:56:08.157Z,88.30
2022-08-22T00:56:18.245Z,90.90
2022-08-22T00:56:28.305Z,84.30
2022-08-22T00:56:38.355Z,89.10
2022-08-22T00:56:48.425Z,97.00
2022-08-22T00:56:58.476Z,99.60
2022-08-22T00:57:08.523Z,90.40
2022-08-22T00:57:18.558Z,86.20
2022-08-22T00:57:28.615Z,85.30
2022-08-22T00:57:38.676Z,87.30
2022-08-22T00:57:48.715Z,86.00
2022-08-22T00:57:59.029Z,92.40
2022-08-22T00:58:08.858Z,92.70
2022-08-22T00:58:18.905Z,92.00
2022-08-22T00:58:28.956Z,86.30
2022-08-22T00:58:39.017Z,87.40
2022-08-22T00:58:49.056Z,95.30
2022-08-22T00:58:59.124Z,88.10
2022-08-22T00:59:18.072Z,93.00
2022-08-22T00:59:23.658Z,93.20
2022-08-22T00:59:31.084Z,90.20
2022-08-22T00:59:41.143Z,82.10
2022-08-22T00:59:51.186Z,74.40
2022-08-22T01:00:01.236Z,72.30
2022-08-22T01:00:11.275Z,66.50
2022-08-22T01:00:21.333Z,66.70
2022-08-22T01:00:34.338Z,81.10
2022-08-22T01:00:42.325Z,96.60
2022-08-22T01:00:52.377Z,98.40
2022-08-22T01:01:02.441Z,91.20
2022-08-22T01:01:12.533Z,91.50
2022-08-22T01:01:22.558Z,94.40
2022-08-22T01:01:32.659Z,98.30
2022-08-22T01:01:42.734Z,96.50
2022-08-22T01:01:52.893Z,95.50
2022-08-22T01:02:02.935Z,93.40
2022-08-22T01:02:12.994Z,95.50
2022-08-22T01:02:23.095Z,94.40
2022-08-22T01:02:33.148Z,98.80
2022-08-22T01:02:43.208Z,102.20
2022-08-22T01:02:53.276Z,109.00
2022-08-22T01:03:03.335Z,113.40
2022-08-22T01:03:13.395Z,106.60
2022-08-22T01:03:23.456Z,100.70
2022-08-22T01:03:33.495Z,95.90
2022-08-22T01:03:43.556Z,95.80
2022-08-22T01:03:53.594Z,95.90
2022-08-22T01:04:03.665Z,98.20
2022-08-22T01:04:13.726Z,101.20
2022-08-22T01:04:23.807Z,108.80
2022-08-22T01:04:33.875Z,106.10
2022-08-22T01:04:43.936Z,107.90
2022-08-22T01:04:54.075Z,102.50
2022-08-22T01:05:04.123Z,97.90
2022-08-22T01:05:14.106Z,90.40
2022-08-22T01:05:24.165Z,89.50
2022-08-22T01:05:34.216Z,95.70
2022-08-22T01:05:44.283Z,101.10
2022-08-22T01:05:54.346Z,103.40
2022-08-22T01:06:04.396Z,100.50
2022-08-22T01:06:14.493Z,99.40
2022-08-22T01:06:24.547Z,100.10
2022-08-22T01:06:34.597Z,99.00
2022-08-22T01:06:44.652Z,99.00
2022-08-22T01:06:54.695Z,100.40
2022-08-22T01:07:04.754Z,102.00
2022-08-22T01:07:14.826Z,105.70
2022-08-22T01:07:24.883Z,106.00
2022-08-22T01:07:38.235Z,101.70
2022-08-22T01:07:45.874Z,102.20
2022-08-22T01:07:55.961Z,104.80
2022-08-22T01:08:05.995Z,112.90
2022-08-22T01:08:16.055Z,106.90
2022-08-22T01:08:26.117Z,104.80
2022-08-22T01:08:36.165Z,96.30
2022-08-22T01:08:46.206Z,93.10
2022-08-22T01:08:56.235Z,84.80
2022-08-22T01:09:06.275Z,86.70
2022-08-22T01:09:16.322Z,81.30
2022-08-22T01:09:26.375Z,85.30
2022-08-22T01:09:36.416Z,88.70
2022-08-22T01:09:46.485Z,96.10
2022-08-22T01:09:56.535Z,102.50
2022-08-22T01:10:06.585Z,98.00
2022-08-22T01:10:16.633Z,92.60
2022-08-22T01:10:26.695Z,88.80
2022-08-22T01:10:36.756Z,92.10
2022-08-22T01:10:46.816Z,98.60
2022-08-22T01:10:56.875Z,101.70
2022-08-22T01:11:06.935Z,105.60
2022-08-22T01:11:16.977Z,109.20
2022-08-22T01:11:27.026Z,104.30
2022-08-22T01:11:37.075Z,98.20
2022-08-22T01:11:47.114Z,93.70
2022-08-22T01:11:57.166Z,96.30
2022-08-22T01:12:07.216Z,96.20
2022-08-22T01:12:17.256Z,95.90
2022-08-22T01:12:27.327Z,95.80
2022-08-22T01:12:37.375Z,102.90
2022-08-22T01:12:47.478Z,106.30
2022-08-22T01:12:57.536Z,104.40
2022-08-22T01:13:07.594Z,103.50
2022-08-22T01:13:17.634Z,97.90
2022-08-22T01:13:27.693Z,94.00
2022-08-22T01:13:37.744Z,94.00
2022-08-22T01:13:47.795Z,95.20
2022-08-22T01:13:57.846Z,91.50
2022-08-22T01:14:07.896Z,90.60
2022-08-22T01:14:17.976Z,89.50
2022-08-22T01:14:35.103Z,98.00
2022-08-22T01:14:38.926Z,104.40
2022-08-22T01:14:48.976Z,113.00
2022-08-22T01:14:59.036Z,114.20
2022-08-22T01:15:09.095Z,104.40
2022-08-22T01:15:19.146Z,100.00
2022-08-22T01:15:29.237Z,96.80
2022-08-22T01:15:39.306Z,106.20
2022-08-22T01:15:49.364Z,109.30
2022-08-22T01:15:59.436Z,107.20
2022-08-22T01:16:09.486Z,106.10
2022-08-22T01:16:19.595Z,105.90
2022-08-22T01:16:29.660Z,107.00
2022-08-22T01:16:39.726Z,105.70
2022-08-22T01:16:49.776Z,106.10
2022-08-22T01:16:59.855Z,103.90
2022-08-22T01:17:09.915Z,96.50
2022-08-22T01:17:19.973Z,92.00
2022-08-22T01:17:30.009Z,90.30
2022-08-22T01:17:40.063Z,99.40
2022-08-22T01:17:50.127Z,102.60
2022-08-22T01:18:00.399Z,103.70
2022-08-22T01:18:10.165Z,97.70
2022-08-22T01:18:20.235Z,102.90
2022-08-22T01:18:30.286Z,97.40
2022-08-22T01:18:40.345Z,98.40
2022-08-22T01:18:50.385Z,88.60
2022-08-22T01:19:00.427Z,101.50
2022-08-22T01:19:10.518Z,97.10
2022-08-22T01:19:20.566Z,100.70
2022-08-22T01:19:30.605Z,93.80
2022-08-22T01:19:40.665Z,101.10
2022-08-22T01:19:50.725Z,107.00
2022-08-22T01:20:00.786Z,109.40
2022-08-22T01:20:10.838Z,104.20
2022-08-22T01:20:20.906Z,104.40
2022-08-22T01:20:30.985Z,106.10
2022-08-22T01:20:41.055Z,111.80
2022-08-22T01:20:51.114Z,104.30
2022-08-22T01:21:01.156Z,99.30
2022-08-22T01:21:11.214Z,97.60
2022-08-22T01:21:24.194Z,100.40
2022-08-22T01:21:31.406Z,100.30
2022-08-22T01:21:41.466Z,100.30
2022-08-22T01:21:51.528Z,104.20
2022-08-22T01:22:01.594Z,105.30
2022-08-22T01:22:11.647Z,105.10
2022-08-22T01:22:21.726Z,101.90
2022-08-22T01:22:31.818Z,103.90
2022-08-22T01:22:41.866Z,100.70
2022-08-22T01:22:51.918Z,94.50
2022-08-22T01:23:01.976Z,98.20
2022-08-22T01:23:12.037Z,100.20
2022-08-22T01:23:22.093Z,109.40
2022-08-22T01:23:32.146Z,105.40
2022-08-22T01:23:42.214Z,104.60
2022-08-22T01:23:52.256Z,95.00
2022-08-22T01:24:02.305Z,87.70
2022-08-22T01:24:12.356Z,88.40
2022-08-22T01:24:22.513Z,94.50
2022-08-22T01:24:32.427Z,106.70
2022-08-22T01:24:42.457Z,113.00
2022-08-22T01:24:52.537Z,108.90
2022-08-22T01:25:02.615Z,104.20
2022-08-22T01:25:12.657Z,99.20
2022-08-22T01:25:26.067Z,105.30
2022-08-22T01:25:32.785Z,106.90
2022-08-22T01:25:43.045Z,105.90
2022-08-22T01:25:53.106Z,111.50
2022-08-22T01:26:03.095Z,111.40
2022-08-22T01:26:13.155Z,108.60
2022-08-22T01:26:23.267Z,106.00
2022-08-22T01:26:33.303Z,105.20
2022-08-22T01:26:44.861Z,110.30
2022-08-22T01:26:53.580Z,109.70
2022-08-22T01:27:03.628Z,111.50
2022-08-22T01:27:13.734Z,112.20
2022-08-22T01:27:23.876Z,106.40
2022-08-22T01:27:33.944Z,102.90
2022-08-22T01:27:44.044Z,109.60
2022-08-22T01:27:54.096Z,107.10
2022-08-22T01:28:04.155Z,109.10
2022-08-22T01:28:14.226Z,104.80
2022-08-22T01:28:24.256Z,105.20
2022-08-22T01:28:34.406Z,104.30
2022-08-22T01:28:44.459Z,95.60
2022-08-22T01:28:54.546Z,102.90
2022-08-22T01:29:04.573Z,102.40
2022-08-22T01:29:14.558Z,108.60
2022-08-22T01:29:28.367Z,108.50
2022-08-22T01:29:34.716Z,99.90
2022-08-22T01:29:44.767Z,100.20
2022-08-22T01:29:54.831Z,103.90
2022-08-22T01:30:04.886Z,109.20
2022-08-22T01:30:14.947Z,108.50
2022-08-22T01:30:25.026Z,108.80
2022-08-22T01:30:35.087Z,111.80
2022-08-22T01:30:45.095Z,114.50
2022-08-22T01:30:55.146Z,110.50
2022-08-22T01:31:05.222Z,109.30
2022-08-22T01:31:15.265Z,110.40
2022-08-22T01:31:25.335Z,102.10
2022-08-22T01:31:35.376Z,103.60
2022-08-22T01:31:45.426Z,101.40
2022-08-22T01:31:55.495Z,112.70
2022-08-22T01:32:05.546Z,109.40
2022-08-22T01:32:15.606Z,108.40
2022-08-22T01:32:25.657Z,107.00
2022-08-22T01:32:35.727Z,105.70
2022-08-22T01:32:45.786Z,108.10
2022-08-22T01:32:56.970Z,105.90
2022-08-22T01:33:05.895Z,103.90
2022-08-22T01:33:15.953Z,100.10
2022-08-22T01:33:25.986Z,99.70
2022-08-22T01:33:36.026Z,105.30
2022-08-22T01:33:46.126Z,111.10
2022-08-22T01:33:56.165Z,110.00
2022-08-22T01:34:06.224Z,107.10
2022-08-22T01:34:17.175Z,100.90
2022-08-22T01:34:27.216Z,94.90
2022-08-22T01:34:37.286Z,89.90
2022-08-22T01:34:47.334Z,89.20
2022-08-22T01:34:57.366Z,90.60
2022-08-22T01:35:07.405Z,93.60
2022-08-22T01:35:17.444Z,89.60
2022-08-22T01:35:27.506Z,95.70
2022-08-22T01:35:37.545Z,91.10
2022-08-22T01:35:47.595Z,101.40
2022-08-22T01:35:57.636Z,101.90
2022-08-22T01:36:07.707Z,110.60
2022-08-22T01:36:17.796Z,113.00
2022-08-22T01:36:27.857Z,119.40
2022-08-22T01:36:37.948Z,109.40
2022-08-22T01:36:47.994Z,108.60
2022-08-22T01:36:58.053Z,105.50
2022-08-22T01:37:08.113Z,112.70
2022-08-22T01:37:18.146Z,114.30
2022-08-22T01:37:28.206Z,114.30
2022-08-22T01:37:43.425Z,105.70
2022-08-22T01:37:49.214Z,97.10
2022-08-22T01:37:59.381Z,91.80
2022-08-22T01:38:09.318Z,104.50
2022-08-22T01:38:19.368Z,112.80
2022-08-22T01:38:29.416Z,122.20
2022-08-22T01:38:39.476Z,114.20
2022-08-22T01:38:49.465Z,111.10
2022-08-22T01:38:59.546Z,106.20
2022-08-22T01:39:09.604Z,112.80
2022-08-22T01:39:19.666Z,109.90
2022-08-22T01:39:29.719Z,109.90
2022-08-22T01:39:41.651Z,103.70
2022-08-22T01:39:51.814Z,105.20
2022-08-22T01:40:01.793Z,106.10
2022-08-22T01:40:11.939Z,109.90
2022-08-22T01:40:21.998Z,111.70
2022-08-22T01:40:32.070Z,115.00
2022-08-22T01:40:53.493Z,117.10
2022-08-22T01:40:53.945Z,111.90
2022-08-22T01:41:03.185Z,115.10
2022-08-22T01:41:13.291Z,114.90
2022-08-22T01:41:23.367Z,115.90
2022-08-22T01:41:33.463Z,108.70
2022-08-22T01:41:43.546Z,109.70
2022-08-22T01:41:53.636Z,104.60
2022-08-22T01:42:03.736Z,111.30
2022-08-22T01:42:15.347Z,108.10
2022-08-22T01:42:23.896Z,116.80
2022-08-22T01:42:33.977Z,115.10
2022-08-22T01:42:44.066Z,123.80
2022-08-22T01:42:54.159Z,120.10
2022-08-22T01:43:04.247Z,126.60
2022-08-22T01:43:14.336Z,114.40
2022-08-22T01:43:51.240Z,112.50
2022-08-22T01:43:58.746Z,111.00
2022-08-22T01:43:59.405Z,105.60
2022-08-22T01:44:00.728Z,104.40
2022-08-22T01:44:07.394Z,112.70
2022-08-22T01:44:17.485Z,115.70
2022-08-22T01:44:27.575Z,133.30
2022-08-22T01:44:37.694Z,149.90
2022-08-22T01:44:47.783Z,159.40
2022-08-22T01:44:57.864Z,164.10
2022-08-22T01:45:07.959Z,147.80
2022-08-22T01:45:18.037Z,157.70
2022-08-22T01:45:28.177Z,156.60
2022-08-22T01:45:38.264Z,159.50
2022-08-22T01:45:48.396Z,149.50
2022-08-22T01:45:58.486Z,150.50
2022-08-22T01:46:08.588Z,152.60
2022-08-22T01:46:21.545Z,153.60
2022-08-22T01:46:28.805Z,152.00
2022-08-22T01:46:38.896Z,154.80
2022-08-22T01:46:48.986Z,153.80
2022-08-22T01:46:59.067Z,156.20
2022-08-22T01:47:09.169Z,152.80
2022-08-22T01:47:19.256Z,150.50
2022-08-22T01:47:29.354Z,141.80
2022-08-22T01:47:40.308Z,145.30
2022-08-22T01:47:50.395Z,148.10
2022-08-22T01:48:00.641Z,153.90
2022-08-22T01:48:10.687Z,149.60
2022-08-22T01:48:20.766Z,157.30
2022-08-22T01:48:30.889Z,160.50
2022-08-22T01:48:40.926Z,165.20
2022-08-22T01:48:51.043Z,167.20
2022-08-22T01:49:01.136Z,158.80
2022-08-22T01:49:11.219Z,156.50
2022-08-22T01:49:21.333Z,151.30
2022-08-22T01:49:31.426Z,152.80
2022-08-22T01:49:41.506Z,151.80
2022-08-22T01:49:51.590Z,153.60
2022-08-22T01:50:01.707Z,150.40
2022-08-22T01:50:11.794Z,146.40
2022-08-22T01:50:21.887Z,141.50
2022-08-22T01:50:31.996Z,149.70
2022-08-22T01:50:42.136Z,158.40
2022-08-22T01:50:52.216Z,160.80
2022-08-22T01:51:02.306Z,159.20
2022-08-22T01:51:12.395Z,146.50
2022-08-22T01:51:22.496Z,154.20
2022-08-22T01:51:32.606Z,157.80
2022-08-22T01:51:42.686Z,165.10
2022-08-22T01:51:52.776Z,166.40
2022-08-22T01:52:02.887Z,167.50
2022-08-22T01:52:12.976Z,164.30
2022-08-22T01:52:23.086Z,157.20
2022-08-22T01:52:33.175Z,151.90
2022-08-22T01:52:43.264Z,144.30
2022-08-22T01:52:53.349Z,149.50
2022-08-22T01:53:03.457Z,148.70
2022-08-22T01:53:13.558Z,149.70
2022-08-22T01:53:23.636Z,155.60
2022-08-22T01:53:33.726Z,156.40
2022-08-22T01:53:43.825Z,161.00
2022-08-22T01:53:53.915Z,160.20
2022-08-22T01:54:03.995Z,154.00
2022-08-22T01:54:14.086Z,161.80
2022-08-22T01:54:24.195Z,163.30
2022-08-22T01:54:34.297Z,164.50
2022-08-22T01:54:44.425Z,160.30
2022-08-22T01:54:54.564Z,154.10
2022-08-22T01:55:04.667Z,159.00
2022-08-22T01:55:14.767Z,153.50
2022-08-22T01:55:24.866Z,147.60
2022-08-22T01:55:34.956Z,145.00
2022-08-22T01:55:45.077Z,144.30
2022-08-22T01:55:55.175Z,149.20
2022-08-22T01:56:05.309Z,151.20
2022-08-22T01:56:15.407Z,156.70
2022-08-22T01:56:25.476Z,152.40
2022-08-22T01:56:35.577Z,158.00
2022-08-22T01:56:45.686Z,154.10
2022-08-22T01:56:55.784Z,157.40
2022-08-22T01:57:05.866Z,154.00
2022-08-22T01:57:15.976Z,148.40
2022-08-22T01:57:26.060Z,158.60
2022-08-22T01:57:36.137Z,146.00
2022-08-22T01:57:46.216Z,152.50
2022-08-22T01:57:56.315Z,145.50
2022-08-22T01:58:06.344Z,155.60
2022-08-22T01:58:16.436Z,160.20
2022-08-22T01:58:26.515Z,153.30
2022-08-22T01:58:36.596Z,149.00
2022-08-22T01:58:46.673Z,141.60
2022-08-22T01:58:56.817Z,145.90
2022-08-22T01:59:10.974Z,144.30
2022-08-22T01:59:17.592Z,154.50
2022-08-22T01:59:27.611Z,158.90
2022-08-22T01:59:42.288Z,162.80
2022-08-22T01:59:48.268Z,160.20
2022-08-22T01:59:58.354Z,158.60
2022-08-22T02:00:08.433Z,167.80
2022-08-22T02:00:18.505Z,164.60
2022-08-22T02:00:35.177Z,169.70
2022-08-22T02:00:39.614Z,166.70
2022-08-22T02:00:49.727Z,161.70
2022-08-22T02:00:59.837Z,145.90
2022-08-22T02:01:09.990Z,144.70
2022-08-22T02:01:20.080Z,152.90
2022-08-22T02:01:30.037Z,165.70
2022-08-22T02:01:40.106Z,162.10
2022-08-22T02:01:50.196Z,156.90
2022-08-22T02:02:00.267Z,153.00
2022-08-22T02:02:10.347Z,162.30
2022-08-22T02:02:20.435Z,162.60
2022-08-22T02:02:30.517Z,158.90
2022-08-22T02:02:40.606Z,154.50
2022-08-22T02:02:50.675Z,163.20
2022-08-22T02:03:00.756Z,164.50
2022-08-22T02:03:10.846Z,162.10
2022-08-22T02:03:20.925Z,165.30
2022-08-22T02:03:31.006Z,165.00
2022-08-22T02:03:41.098Z,166.70